sensor_id;sensor_type;location;lat;lon;timestamp;temperature;humidity
59307;DHT22;47983;53.016;-2.260;2023-04-06T00:04:33;9.20;99.90
59307;DHT22;47983;53.016;-2.260;2023-04-06T00:07:03;9.20;99.90
59307;DHT22;47983;53.016;-2.260;2023-04-06T00:09:31;9.20;99.90
59307;DHT22;47983;53.016;-2.260;2023-04-06T00:11:58;9.30;99.90
59307;DHT22;47983;53.016;-2.260;2023-04-06T00:14:26;9.30;99.90
59307;DHT22;47983;53.016;-2.260;2023-04-06T00:16:54;9.20;99.90
59307;DHT22;47983;53.016;-2.260;2023-04-06T00:19:22;9.20;99.90
59307;DHT22;47983;53.016;-2.260;2023-04-06T00:21:50;9.30;99.90
59307;DHT22;47983;53.016;-2.260;2023-04-06T00:24:19;9.30;99.90
59307;DHT22;47983;53.016;-2.260;2023-04-06T00:26:47;9.30;99.90
59307;DHT22;47983;53.016;-2.260;2023-04-06T00:29:15;9.30;99.90
59307;DHT22;47983;53.016;-2.260;2023-04-06T00:31:42;9.40;99.90
59307;DHT22;47983;53.016;-2.260;2023-04-06T00:34:10;9.40;99.90
59307;DHT22;47983;53.016;-2.260;2023-04-06T00:36:38;9.40;99.90
59307;DHT22;47983;53.016;-2.260;2023-04-06T00:39:05;9.40;99.90
59307;DHT22;47983;53.016;-2.260;2023-04-06T00:41:33;9.40;99.90
59307;DHT22;47983;53.016;-2.260;2023-04-06T00:44:01;9.40;99.90
59307;DHT22;47983;53.016;-2.260;2023-04-06T00:46:29;9.40;99.90
59307;DHT22;47983;53.016;-2.260;2023-04-06T00:48:57;9.40;99.90
59307;DHT22;47983;53.016;-2.260;2023-04-06T00:51:25;9.40;99.90
59307;DHT22;47983;53.016;-2.260;2023-04-06T00:53:52;9.40;99.90
59307;DHT22;47983;53.016;-2.260;2023-04-06T00:56:21;9.40;99.90
59307;DHT22;47983;53.016;-2.260;2023-04-06T00:58:53;9.40;99.90
59307;DHT22;47983;53.016;-2.260;2023-04-06T01:01:21;9.40;99.90
59307;DHT22;47983;53.016;-2.260;2023-04-06T01:03:51;9.40;99.90
59307;DHT22;47983;53.016;-2.260;2023-04-06T01:06:20;9.40;99.90
59307;DHT22;47983;53.016;-2.260;2023-04-06T01:08:56;9.40;99.90
59307;DHT22;47983;53.016;-2.260;2023-04-06T01:11:26;9.50;99.90
59307;DHT22;47983;53.016;-2.260;2023-04-06T01:13:55;9.50;99.90
59307;DHT22;47983;53.016;-2.260;2023-04-06T01:16:42;9.50;99.90
59307;DHT22;47983;53.016;-2.260;2023-04-06T01:19:14;9.50;99.90
59307;DHT22;47983;53.016;-2.260;2023-04-06T01:21:46;9.50;99.90
59307;DHT22;47983;53.016;-2.260;2023-04-06T01:24:23;9.50;99.90
59307;DHT22;47983;53.016;-2.260;2023-04-06T01:27:20;9.50;99.90
59307;DHT22;47983;53.016;-2.260;2023-04-06T01:30:04;9.50;99.90
59307;DHT22;47983;53.016;-2.260;2023-04-06T01:32:49;9.50;99.90
59307;DHT22;47983;53.016;-2.260;2023-04-06T01:35:27;9.60;99.90
59307;DHT22;47983;53.016;-2.260;2023-04-06T01:38:14;9.60;99.90
59307;DHT22;47983;53.016;-2.260;2023-04-06T01:40:43;9.60;99.90
59307;DHT22;47983;53.016;-2.260;2023-04-06T01:43:11;9.60;99.90
59307;DHT22;47983;53.016;-2.260;2023-04-06T01:45:54;9.60;99.90
59307;DHT22;47983;53.016;-2.260;2023-04-06T01:48:27;9.60;99.90
59307;DHT22;47983;53.016;-2.260;2023-04-06T01:50:55;9.60;99.90
59307;DHT22;47983;53.016;-2.260;2023-04-06T01:53:29;9.60;99.90
59307;DHT22;47983;53.016;-2.260;2023-04-06T01:56:02;9.60;99.90
59307;DHT22;47983;53.016;-2.260;2023-04-06T01:58:34;9.60;99.90
59307;DHT22;47983;53.016;-2.260;2023-04-06T02:01:03;9.60;99.90
59307;DHT22;47983;53.016;-2.260;2023-04-06T02:03:41;9.60;99.90
59307;DHT22;47983;53.016;-2.260;2023-04-06T02:06:10;9.60;99.90
59307;DHT22;47983;53.016;-2.260;2023-04-06T02:08:40;9.60;99.90
59307;DHT22;47983;53.016;-2.260;2023-04-06T02:11:08;9.60;99.90
59307;DHT22;47983;53.016;-2.260;2023-04-06T02:13:46;9.60;99.90
59307;DHT22;47983;53.016;-2.260;2023-04-06T02:16:15;9.60;99.90
59307;DHT22;47983;53.016;-2.260;2023-04-06T02:18:45;9.60;99.90
59307;DHT22;47983;53.016;-2.260;2023-04-06T02:21:13;9.60;99.90
59307;DHT22;47983;53.016;-2.260;2023-04-06T02:23:40;9.60;99.90
59307;DHT22;47983;53.016;-2.260;2023-04-06T02:26:08;9.60;99.90
59307;DHT22;47983;53.016;-2.260;2023-04-06T02:28:36;9.60;99.90
59307;DHT22;47983;53.016;-2.260;2023-04-06T02:31:03;9.60;99.90
59307;DHT22;47983;53.016;-2.260;2023-04-06T02:33:31;9.60;99.90
59307;DHT22;47983;53.016;-2.260;2023-04-06T02:36:01;9.60;99.90
59307;DHT22;47983;53.016;-2.260;2023-04-06T02:38:29;9.60;99.90
59307;DHT22;47983;53.016;-2.260;2023-04-06T02:41:00;9.60;99.90
59307;DHT22;47983;53.016;-2.260;2023-04-06T02:43:29;9.60;99.90
59307;DHT22;47983;53.016;-2.260;2023-04-06T02:46:08;9.60;99.90
59307;DHT22;47983;53.016;-2.260;2023-04-06T02:48:38;9.60;99.90
59307;DHT22;47983;53.016;-2.260;2023-04-06T02:51:06;9.60;99.90
59307;DHT22;47983;53.016;-2.260;2023-04-06T02:53:34;9.60;99.90
59307;DHT22;47983;53.016;-2.260;2023-04-06T02:56:02;9.70;99.90
59307;DHT22;47983;53.016;-2.260;2023-04-06T02:58:41;9.60;99.90
59307;DHT22;47983;53.016;-2.260;2023-04-06T03:01:09;9.70;99.90
59307;DHT22;47983;53.016;-2.260;2023-04-06T03:03:38;9.70;99.90
59307;DHT22;47983;53.016;-2.260;2023-04-06T03:06:12;9.60;99.90
59307;DHT22;47983;53.016;-2.260;2023-04-06T03:08:40;9.60;99.90
59307;DHT22;47983;53.016;-2.260;2023-04-06T03:11:08;9.60;99.90
59307;DHT22;47983;53.016;-2.260;2023-04-06T03:13:40;9.60;99.90
59307;DHT22;47983;53.016;-2.260;2023-04-06T03:16:07;9.60;99.90
59307;DHT22;47983;53.016;-2.260;2023-04-06T03:18:35;9.60;99.90
59307;DHT22;47983;53.016;-2.260;2023-04-06T03:21:03;9.60;99.90
59307;DHT22;47983;53.016;-2.260;2023-04-06T03:23:42;9.50;99.90
59307;DHT22;47983;53.016;-2.260;2023-04-06T03:26:10;9.60;99.90
59307;DHT22;47983;53.016;-2.260;2023-04-06T03:28:38;9.60;99.90
59307;DHT22;47983;53.016;-2.260;2023-04-06T03:31:06;9.60;99.90
59307;DHT22;47983;53.016;-2.260;2023-04-06T03:33:45;9.60;99.90
59307;DHT22;47983;53.016;-2.260;2023-04-06T03:36:26;9.60;99.90
59307;DHT22;47983;53.016;-2.260;2023-04-06T03:38:56;9.60;99.90
59307;DHT22;47983;53.016;-2.260;2023-04-06T03:41:24;9.50;99.90
59307;DHT22;47983;53.016;-2.260;2023-04-06T03:44:05;9.60;99.90
59307;DHT22;47983;53.016;-2.260;2023-04-06T03:46:33;9.60;99.90
59307;DHT22;47983;53.016;-2.260;2023-04-06T03:49:01;9.60;99.90
59307;DHT22;47983;53.016;-2.260;2023-04-06T03:51:29;9.60;99.90
59307;DHT22;47983;53.016;-2.260;2023-04-06T03:53:57;9.60;99.90
59307;DHT22;47983;53.016;-2.260;2023-04-06T03:56:24;9.60;99.90
59307;DHT22;47983;53.016;-2.260;2023-04-06T03:58:54;9.60;99.90
59307;DHT22;47983;53.016;-2.260;2023-04-06T04:01:21;9.60;99.90
59307;DHT22;47983;53.016;-2.260;2023-04-06T04:03:49;9.60;99.90
59307;DHT22;47983;53.016;-2.260;2023-04-06T04:06:18;9.60;99.90
59307;DHT22;47983;53.016;-2.260;2023-04-06T04:08:46;9.60;99.90
59307;DHT22;47983;53.016;-2.260;2023-04-06T04:11:14;9.60;99.90
59307;DHT22;47983;53.016;-2.260;2023-04-06T04:13:44;9.60;99.90
59307;DHT22;47983;53.016;-2.260;2023-04-06T04:16:12;9.60;99.90
59307;DHT22;47983;53.016;-2.260;2023-04-06T04:18:40;9.60;99.90
59307;DHT22;47983;53.016;-2.260;2023-04-06T04:21:07;9.60;99.90
59307;DHT22;47983;53.016;-2.260;2023-04-06T04:23:38;9.60;99.90
59307;DHT22;47983;53.016;-2.260;2023-04-06T04:26:08;9.40;99.90
59307;DHT22;47983;53.016;-2.260;2023-04-06T04:28:36;9.60;99.90
59307;DHT22;47983;53.016;-2.260;2023-04-06T04:31:03;9.60;99.90
59307;DHT22;47983;53.016;-2.260;2023-04-06T04:33:34;9.60;99.90
59307;DHT22;47983;53.016;-2.260;2023-04-06T04:36:07;9.60;99.90
59307;DHT22;47983;53.016;-2.260;2023-04-06T04:38:39;9.60;99.90
59307;DHT22;47983;53.016;-2.260;2023-04-06T04:41:07;9.60;99.90
59307;DHT22;47983;53.016;-2.260;2023-04-06T04:43:38;9.60;99.90
59307;DHT22;47983;53.016;-2.260;2023-04-06T04:46:06;9.60;99.90
59307;DHT22;47983;53.016;-2.260;2023-04-06T04:48:39;9.60;99.90
59307;DHT22;47983;53.016;-2.260;2023-04-06T04:51:08;9.60;99.90
59307;DHT22;47983;53.016;-2.260;2023-04-06T04:54:08;9.60;99.90
59307;DHT22;47983;53.016;-2.260;2023-04-06T04:56:36;9.60;99.90
59307;DHT22;47983;53.016;-2.260;2023-04-06T04:59:24;9.60;99.90
59307;DHT22;47983;53.016;-2.260;2023-04-06T05:01:58;9.50;99.90
59307;DHT22;47983;53.016;-2.260;2023-04-06T05:04:40;9.50;99.90
59307;DHT22;47983;53.016;-2.260;2023-04-06T05:07:11;9.50;99.90
59307;DHT22;47983;53.016;-2.260;2023-04-06T05:09:40;9.60;99.90
59307;DHT22;47983;53.016;-2.260;2023-04-06T05:12:09;9.50;99.90
59307;DHT22;47983;53.016;-2.260;2023-04-06T05:14:47;9.50;99.90
59307;DHT22;47983;53.016;-2.260;2023-04-06T05:17:17;9.50;99.90
59307;DHT22;47983;53.016;-2.260;2023-04-06T05:19:45;9.50;99.90
59307;DHT22;47983;53.016;-2.260;2023-04-06T05:22:17;9.50;99.90
59307;DHT22;47983;53.016;-2.260;2023-04-06T05:24:50;9.50;99.90
59307;DHT22;47983;53.016;-2.260;2023-04-06T05:29:47;9.40;99.90
59307;DHT22;47983;53.016;-2.260;2023-04-06T05:32:16;9.40;99.90
59307;DHT22;47983;53.016;-2.260;2023-04-06T05:34:45;9.40;99.90
59307;DHT22;47983;53.016;-2.260;2023-04-06T05:37:12;9.30;99.90
59307;DHT22;47983;53.016;-2.260;2023-04-06T05:39:41;9.30;99.90
59307;DHT22;47983;53.016;-2.260;2023-04-06T05:42:09;9.30;99.90
59307;DHT22;47983;53.016;-2.260;2023-04-06T05:47:18;9.30;99.90
59307;DHT22;47983;53.016;-2.260;2023-04-06T05:49:51;9.20;99.90
59307;DHT22;47983;53.016;-2.260;2023-04-06T05:52:28;9.20;99.90
59307;DHT22;47983;53.016;-2.260;2023-04-06T05:54:56;9.20;99.90
59307;DHT22;47983;53.016;-2.260;2023-04-06T05:59:54;9.20;99.90
59307;DHT22;47983;53.016;-2.260;2023-04-06T06:02:26;9.10;99.90
59307;DHT22;47983;53.016;-2.260;2023-04-06T06:04:55;9.10;99.90
59307;DHT22;47983;53.016;-2.260;2023-04-06T06:07:25;9.10;99.90
59307;DHT22;47983;53.016;-2.260;2023-04-06T06:09:58;9.10;99.90
59307;DHT22;47983;53.016;-2.260;2023-04-06T06:12:32;9.10;99.90
59307;DHT22;47983;53.016;-2.260;2023-04-06T06:15:01;9.10;99.90
59307;DHT22;47983;53.016;-2.260;2023-04-06T06:17:32;9.10;99.90
59307;DHT22;47983;53.016;-2.260;2023-04-06T06:20:00;9.00;99.90
59307;DHT22;47983;53.016;-2.260;2023-04-06T06:22:29;9.00;99.90
59307;DHT22;47983;53.016;-2.260;2023-04-06T06:24:57;9.00;99.90
59307;DHT22;47983;53.016;-2.260;2023-04-06T06:27:25;9.00;99.90
59307;DHT22;47983;53.016;-2.260;2023-04-06T06:29:52;8.90;99.90
59307;DHT22;47983;53.016;-2.260;2023-04-06T06:32:20;8.90;99.90
59307;DHT22;47983;53.016;-2.260;2023-04-06T06:34:51;8.90;99.90
59307;DHT22;47983;53.016;-2.260;2023-04-06T06:37:19;8.90;99.90
59307;DHT22;47983;53.016;-2.260;2023-04-06T06:39:48;8.90;99.90
59307;DHT22;47983;53.016;-2.260;2023-04-06T06:42:16;8.90;99.90
59307;DHT22;47983;53.016;-2.260;2023-04-06T06:45:04;8.80;99.90
59307;DHT22;47983;53.016;-2.260;2023-04-06T06:47:38;8.80;99.90
59307;DHT22;47983;53.016;-2.260;2023-04-06T06:50:08;10.00;99.90
59307;DHT22;47983;53.016;-2.260;2023-04-06T06:52:36;8.80;99.90
59307;DHT22;47983;53.016;-2.260;2023-04-06T06:55:03;8.70;99.90
59307;DHT22;47983;53.016;-2.260;2023-04-06T06:57:33;8.70;99.90
59307;DHT22;47983;53.016;-2.260;2023-04-06T07:00:02;8.70;99.90
59307;DHT22;47983;53.016;-2.260;2023-04-06T07:02:30;8.70;99.90
59307;DHT22;47983;53.016;-2.260;2023-04-06T07:04:58;8.70;99.90
59307;DHT22;47983;53.016;-2.260;2023-04-06T07:07:26;8.70;99.90
59307;DHT22;47983;53.016;-2.260;2023-04-06T07:09:53;8.70;99.90
59307;DHT22;47983;53.016;-2.260;2023-04-06T07:12:21;8.70;99.90
59307;DHT22;47983;53.016;-2.260;2023-04-06T07:14:48;8.70;99.90
59307;DHT22;47983;53.016;-2.260;2023-04-06T07:17:17;8.70;99.90
59307;DHT22;47983;53.016;-2.260;2023-04-06T07:19:45;8.70;99.90
59307;DHT22;47983;53.016;-2.260;2023-04-06T07:22:13;8.70;99.90
59307;DHT22;47983;53.016;-2.260;2023-04-06T07:24:40;8.70;99.90
59307;DHT22;47983;53.016;-2.260;2023-04-06T07:27:08;8.70;99.90
59307;DHT22;47983;53.016;-2.260;2023-04-06T07:29:36;8.70;99.90
59307;DHT22;47983;53.016;-2.260;2023-04-06T07:32:05;8.70;99.90
59307;DHT22;47983;53.016;-2.260;2023-04-06T07:34:35;8.70;99.90
59307;DHT22;47983;53.016;-2.260;2023-04-06T07:37:06;8.70;99.90
59307;DHT22;47983;53.016;-2.260;2023-04-06T07:39:34;8.80;99.90
59307;DHT22;47983;53.016;-2.260;2023-04-06T07:42:02;8.80;99.90
59307;DHT22;47983;53.016;-2.260;2023-04-06T07:44:30;8.80;99.90
59307;DHT22;47983;53.016;-2.260;2023-04-06T07:47:01;8.80;99.90
59307;DHT22;47983;53.016;-2.260;2023-04-06T07:49:28;8.80;99.90
59307;DHT22;47983;53.016;-2.260;2023-04-06T07:51:56;8.90;99.90
59307;DHT22;47983;53.016;-2.260;2023-04-06T07:54:24;8.90;99.90
59307;DHT22;47983;53.016;-2.260;2023-04-06T07:56:52;8.90;99.90
59307;DHT22;47983;53.016;-2.260;2023-04-06T07:59:19;9.00;99.90
59307;DHT22;47983;53.016;-2.260;2023-04-06T08:01:47;8.90;99.90
59307;DHT22;47983;53.016;-2.260;2023-04-06T08:04:16;8.90;99.90
59307;DHT22;47983;53.016;-2.260;2023-04-06T08:06:43;8.90;99.90
59307;DHT22;47983;53.016;-2.260;2023-04-06T08:09:11;8.90;99.90
59307;DHT22;47983;53.016;-2.260;2023-04-06T08:11:39;8.90;99.90
59307;DHT22;47983;53.016;-2.260;2023-04-06T08:14:06;8.90;99.90
59307;DHT22;47983;53.016;-2.260;2023-04-06T08:16:35;9.00;99.90
59307;DHT22;47983;53.016;-2.260;2023-04-06T08:19:03;9.00;99.90
59307;DHT22;47983;53.016;-2.260;2023-04-06T08:21:33;9.10;99.90
59307;DHT22;47983;53.016;-2.260;2023-04-06T08:24:01;9.10;99.90
59307;DHT22;47983;53.016;-2.260;2023-04-06T08:26:29;9.10;99.90
59307;DHT22;47983;53.016;-2.260;2023-04-06T08:28:57;9.10;99.90
59307;DHT22;47983;53.016;-2.260;2023-04-06T08:31:25;9.10;99.90
59307;DHT22;47983;53.016;-2.260;2023-04-06T08:33:53;9.20;99.90
59307;DHT22;47983;53.016;-2.260;2023-04-06T08:36:21;9.30;99.90
59307;DHT22;47983;53.016;-2.260;2023-04-06T08:38:50;9.30;99.90
59307;DHT22;47983;53.016;-2.260;2023-04-06T08:41:18;9.30;99.90
59307;DHT22;47983;53.016;-2.260;2023-04-06T08:43:59;9.30;99.90
59307;DHT22;47983;53.016;-2.260;2023-04-06T08:46:29;9.30;99.90
59307;DHT22;47983;53.016;-2.260;2023-04-06T08:48:59;9.30;99.90
59307;DHT22;47983;53.016;-2.260;2023-04-06T08:51:29;9.30;99.90
59307;DHT22;47983;53.016;-2.260;2023-04-06T08:53:58;9.50;99.90
59307;DHT22;47983;53.016;-2.260;2023-04-06T08:56:28;9.60;99.90
59307;DHT22;47983;53.016;-2.260;2023-04-06T08:58:56;9.60;99.90
59307;DHT22;47983;53.016;-2.260;2023-04-06T09:01:29;9.80;99.90
59307;DHT22;47983;53.016;-2.260;2023-04-06T09:03:58;9.70;99.90
59307;DHT22;47983;53.016;-2.260;2023-04-06T09:06:28;9.80;99.90
59307;DHT22;47983;53.016;-2.260;2023-04-06T09:08:56;9.70;99.90
59307;DHT22;47983;53.016;-2.260;2023-04-06T09:11:24;9.50;99.90
59307;DHT22;47983;53.016;-2.260;2023-04-06T09:13:54;9.50;99.90
59307;DHT22;47983;53.016;-2.260;2023-04-06T09:16:23;9.40;99.90
59307;DHT22;47983;53.016;-2.260;2023-04-06T09:18:51;9.30;99.90
59307;DHT22;47983;53.016;-2.260;2023-04-06T09:21:19;9.50;99.90
59307;DHT22;47983;53.016;-2.260;2023-04-06T09:24:01;9.40;99.90
59307;DHT22;47983;53.016;-2.260;2023-04-06T09:26:30;9.60;99.90
59307;DHT22;47983;53.016;-2.260;2023-04-06T09:28:58;9.60;99.90
59307;DHT22;47983;53.016;-2.260;2023-04-06T09:31:30;9.80;99.90
59307;DHT22;47983;53.016;-2.260;2023-04-06T09:34:01;9.80;99.90
59307;DHT22;47983;53.016;-2.260;2023-04-06T09:36:34;9.90;99.90
59307;DHT22;47983;53.016;-2.260;2023-04-06T09:39:04;10.00;99.90
59307;DHT22;47983;53.016;-2.260;2023-04-06T09:41:33;10.10;99.90
59307;DHT22;47983;53.016;-2.260;2023-04-06T09:44:08;10.20;99.90
59307;DHT22;47983;53.016;-2.260;2023-04-06T09:46:40;10.30;99.90
59307;DHT22;47983;53.016;-2.260;2023-04-06T09:49:27;10.30;99.90
59307;DHT22;47983;53.016;-2.260;2023-04-06T09:52:00;10.40;99.90
59307;DHT22;47983;53.016;-2.260;2023-04-06T09:54:30;10.50;99.90
59307;DHT22;47983;53.016;-2.260;2023-04-06T09:59:53;10.80;99.90
59307;DHT22;47983;53.016;-2.260;2023-04-06T10:02:47;10.80;99.90
59307;DHT22;47983;53.016;-2.260;2023-04-06T10:08:10;10.60;99.90
59307;DHT22;47983;53.016;-2.260;2023-04-06T10:10:38;10.60;99.90
59307;DHT22;47983;53.016;-2.260;2023-04-06T10:13:06;10.70;99.90
59307;DHT22;47983;53.016;-2.260;2023-04-06T10:15:38;10.70;99.90
59307;DHT22;47983;53.016;-2.260;2023-04-06T10:18:07;10.80;99.90
59307;DHT22;47983;53.016;-2.260;2023-04-06T10:21:01;10.80;99.90
59307;DHT22;47983;53.016;-2.260;2023-04-06T10:23:41;10.70;99.90
59307;DHT22;47983;53.016;-2.260;2023-04-06T10:26:15;10.60;99.90
59307;DHT22;47983;53.016;-2.260;2023-04-06T10:28:46;10.60;99.90
59307;DHT22;47983;53.016;-2.260;2023-04-06T10:31:14;10.50;99.90
59307;DHT22;47983;53.016;-2.260;2023-04-06T10:33:56;10.30;99.90
59307;DHT22;47983;53.016;-2.260;2023-04-06T10:36:26;10.30;99.90
59307;DHT22;47983;53.016;-2.260;2023-04-06T10:38:56;10.20;99.90
59307;DHT22;47983;53.016;-2.260;2023-04-06T10:41:33;10.20;99.90
59307;DHT22;47983;53.016;-2.260;2023-04-06T10:44:01;10.20;99.90
59307;DHT22;47983;53.016;-2.260;2023-04-06T10:46:32;10.30;99.90
59307;DHT22;47983;53.016;-2.260;2023-04-06T10:49:11;10.40;99.90
59307;DHT22;47983;53.016;-2.260;2023-04-06T10:51:41;10.70;99.90
59307;DHT22;47983;53.016;-2.260;2023-04-06T10:54:12;10.80;99.90
59307;DHT22;47983;53.016;-2.260;2023-04-06T10:56:41;11.00;99.90
59307;DHT22;47983;53.016;-2.260;2023-04-06T10:59:09;11.00;99.90
59307;DHT22;47983;53.016;-2.260;2023-04-06T11:01:36;11.00;99.90
59307;DHT22;47983;53.016;-2.260;2023-04-06T11:04:04;11.00;99.90
59307;DHT22;47983;53.016;-2.260;2023-04-06T11:06:38;10.80;99.90
59307;DHT22;47983;53.016;-2.260;2023-04-06T11:09:06;10.80;99.90
59307;DHT22;47983;53.016;-2.260;2023-04-06T11:11:39;10.70;99.90
59307;DHT22;47983;53.016;-2.260;2023-04-06T11:14:09;10.90;99.90
59307;DHT22;47983;53.016;-2.260;2023-04-06T11:21:44;12.30;99.90
59307;DHT22;47983;53.016;-2.260;2023-04-06T11:24:19;11.40;99.90
59307;DHT22;47983;53.016;-2.260;2023-04-06T11:26:55;11.50;99.90
59307;DHT22;47983;53.016;-2.260;2023-04-06T11:29:29;11.60;99.90
59307;DHT22;47983;53.016;-2.260;2023-04-06T11:32:03;11.60;99.90
59307;DHT22;47983;53.016;-2.260;2023-04-06T11:34:36;11.50;99.90
59307;DHT22;47983;53.016;-2.260;2023-04-06T11:37:10;11.60;99.90
59307;DHT22;47983;53.016;-2.260;2023-04-06T11:39:39;11.50;99.90
59307;DHT22;47983;53.016;-2.260;2023-04-06T11:42:08;11.60;99.90
59307;DHT22;47983;53.016;-2.260;2023-04-06T11:44:44;11.70;99.90
59307;DHT22;47983;53.016;-2.260;2023-04-06T11:47:19;11.80;99.90
59307;DHT22;47983;53.016;-2.260;2023-04-06T11:49:53;11.80;99.90
59307;DHT22;47983;53.016;-2.260;2023-04-06T11:52:24;11.90;99.90
59307;DHT22;47983;53.016;-2.260;2023-04-06T11:54:53;12.10;99.90
59307;DHT22;47983;53.016;-2.260;2023-04-06T11:57:22;12.70;99.90
59307;DHT22;47983;53.016;-2.260;2023-04-06T11:59:53;12.70;99.90
59307;DHT22;47983;53.016;-2.260;2023-04-06T12:02:21;13.10;99.90
59307;DHT22;47983;53.016;-2.260;2023-04-06T12:04:49;13.20;99.90
59307;DHT22;47983;53.016;-2.260;2023-04-06T12:07:16;13.20;99.90
59307;DHT22;47983;53.016;-2.260;2023-04-06T12:09:44;13.20;99.90
59307;DHT22;47983;53.016;-2.260;2023-04-06T12:12:12;13.30;99.90
59307;DHT22;47983;53.016;-2.260;2023-04-06T12:14:40;13.20;99.90
59307;DHT22;47983;53.016;-2.260;2023-04-06T12:17:11;13.10;99.90
59307;DHT22;47983;53.016;-2.260;2023-04-06T12:22:06;12.80;99.90
59307;DHT22;47983;53.016;-2.260;2023-04-06T12:24:34;12.70;99.90
59307;DHT22;47983;53.016;-2.260;2023-04-06T12:27:02;12.50;99.90
59307;DHT22;47983;53.016;-2.260;2023-04-06T12:29:40;12.20;99.90
59307;DHT22;47983;53.016;-2.260;2023-04-06T12:32:08;12.10;99.90
59307;DHT22;47983;53.016;-2.260;2023-04-06T12:34:38;11.80;99.90
59307;DHT22;47983;53.016;-2.260;2023-04-06T12:37:06;11.80;99.90
59307;DHT22;47983;53.016;-2.260;2023-04-06T12:39:39;12.10;99.90
59307;DHT22;47983;53.016;-2.260;2023-04-06T12:42:07;12.70;99.90
59307;DHT22;47983;53.016;-2.260;2023-04-06T12:44:36;12.80;99.90
59307;DHT22;47983;53.016;-2.260;2023-04-06T12:47:04;12.70;99.90
59307;DHT22;47983;53.016;-2.260;2023-04-06T12:49:38;12.60;99.90
59307;DHT22;47983;53.016;-2.260;2023-04-06T12:52:06;12.30;99.90
59307;DHT22;47983;53.016;-2.260;2023-04-06T12:54:33;12.10;99.90
59307;DHT22;47983;53.016;-2.260;2023-04-06T12:57:04;11.90;99.90
59307;DHT22;47983;53.016;-2.260;2023-04-06T12:59:32;11.80;99.90
59307;DHT22;47983;53.016;-2.260;2023-04-06T13:02:03;11.70;99.90
59307;DHT22;47983;53.016;-2.260;2023-04-06T13:04:32;12.00;99.90
59307;DHT22;47983;53.016;-2.260;2023-04-06T13:07:00;13.20;99.90
59307;DHT22;47983;53.016;-2.260;2023-04-06T13:09:28;13.20;99.90
59307;DHT22;47983;53.016;-2.260;2023-04-06T13:11:55;13.70;99.90
59307;DHT22;47983;53.016;-2.260;2023-04-06T13:14:23;13.70;99.90
59307;DHT22;47983;53.016;-2.260;2023-04-06T13:16:51;13.90;99.90
59307;DHT22;47983;53.016;-2.260;2023-04-06T13:19:19;14.20;99.90
59307;DHT22;47983;53.016;-2.260;2023-04-06T13:21:47;14.40;99.90
59307;DHT22;47983;53.016;-2.260;2023-04-06T13:24:14;14.70;99.90
59307;DHT22;47983;53.016;-2.260;2023-04-06T13:26:44;15.10;99.90
59307;DHT22;47983;53.016;-2.260;2023-04-06T13:29:11;15.70;99.90
59307;DHT22;47983;53.016;-2.260;2023-04-06T13:31:41;16.20;99.90
59307;DHT22;47983;53.016;-2.260;2023-04-06T13:34:09;16.50;99.90
59307;DHT22;47983;53.016;-2.260;2023-04-06T13:36:38;16.60;99.90
59307;DHT22;47983;53.016;-2.260;2023-04-06T13:39:08;16.90;99.90
59307;DHT22;47983;53.016;-2.260;2023-04-06T13:41:36;17.20;99.90
59307;DHT22;47983;53.016;-2.260;2023-04-06T13:44:04;17.50;99.90
59307;DHT22;47983;53.016;-2.260;2023-04-06T13:46:34;17.40;99.10
59307;DHT22;47983;53.016;-2.260;2023-04-06T13:49:01;16.80;97.40
59307;DHT22;47983;53.016;-2.260;2023-04-06T13:51:29;16.40;99.20
59307;DHT22;47983;53.016;-2.260;2023-04-06T13:53:58;16.30;99.90
59307;DHT22;47983;53.016;-2.260;2023-04-06T13:56:25;16.50;99.90
59307;DHT22;47983;53.016;-2.260;2023-04-06T13:58:56;16.90;97.40
59307;DHT22;47983;53.016;-2.260;2023-04-06T14:01:24;16.90;97.40
59307;DHT22;47983;53.016;-2.260;2023-04-06T14:03:53;16.60;95.60
59307;DHT22;47983;53.016;-2.260;2023-04-06T14:06:22;16.00;95.70
59307;DHT22;47983;53.016;-2.260;2023-04-06T14:08:58;15.30;97.10
59307;DHT22;47983;53.016;-2.260;2023-04-06T14:11:26;15.10;99.90
59307;DHT22;47983;53.016;-2.260;2023-04-06T14:13:54;15.10;99.90
59307;DHT22;47983;53.016;-2.260;2023-04-06T14:16:25;14.40;99.90
59307;DHT22;47983;53.016;-2.260;2023-04-06T14:18:53;15.50;99.90
59307;DHT22;47983;53.016;-2.260;2023-04-06T14:21:20;14.00;99.90
59307;DHT22;47983;53.016;-2.260;2023-04-06T14:23:48;13.70;99.90
59307;DHT22;47983;53.016;-2.260;2023-04-06T14:26:15;13.90;99.90
59307;DHT22;47983;53.016;-2.260;2023-04-06T14:28:44;13.90;99.90
59307;DHT22;47983;53.016;-2.260;2023-04-06T14:31:14;13.90;99.90
59307;DHT22;47983;53.016;-2.260;2023-04-06T14:33:43;13.90;99.90
59307;DHT22;47983;53.016;-2.260;2023-04-06T14:36:12;13.50;99.90
59307;DHT22;47983;53.016;-2.260;2023-04-06T14:38:39;13.40;99.90
59307;DHT22;47983;53.016;-2.260;2023-04-06T14:41:08;13.30;99.90
59307;DHT22;47983;53.016;-2.260;2023-04-06T14:43:39;13.30;99.90
59307;DHT22;47983;53.016;-2.260;2023-04-06T14:46:07;13.30;99.90
59307;DHT22;47983;53.016;-2.260;2023-04-06T14:48:36;13.30;99.90
59307;DHT22;47983;53.016;-2.260;2023-04-06T14:51:04;13.30;99.90
59307;DHT22;47983;53.016;-2.260;2023-04-06T14:53:33;13.30;99.90
59307;DHT22;47983;53.016;-2.260;2023-04-06T14:56:04;13.40;99.90
59307;DHT22;47983;53.016;-2.260;2023-04-06T14:58:34;13.60;99.90
59307;DHT22;47983;53.016;-2.260;2023-04-06T15:01:02;13.70;99.90
59307;DHT22;47983;53.016;-2.260;2023-04-06T15:03:30;13.90;99.90
59307;DHT22;47983;53.016;-2.260;2023-04-06T15:05:58;14.00;99.90
59307;DHT22;47983;53.016;-2.260;2023-04-06T15:08:26;14.10;99.90
59307;DHT22;47983;53.016;-2.260;2023-04-06T15:10:53;14.20;99.90
59307;DHT22;47983;53.016;-2.260;2023-04-06T15:13:23;14.20;99.90
59307;DHT22;47983;53.016;-2.260;2023-04-06T15:15:51;14.00;99.90
59307;DHT22;47983;53.016;-2.260;2023-04-06T15:18:19;14.00;99.90
59307;DHT22;47983;53.016;-2.260;2023-04-06T15:20:47;14.00;99.90
59307;DHT22;47983;53.016;-2.260;2023-04-06T15:23:15;13.90;99.90
59307;DHT22;47983;53.016;-2.260;2023-04-06T15:25:43;13.70;99.90
59307;DHT22;47983;53.016;-2.260;2023-04-06T15:28:10;13.50;99.90
59307;DHT22;47983;53.016;-2.260;2023-04-06T15:30:38;13.40;99.90
59307;DHT22;47983;53.016;-2.260;2023-04-06T15:33:07;13.30;99.90
59307;DHT22;47983;53.016;-2.260;2023-04-06T15:35:36;13.20;99.90
59307;DHT22;47983;53.016;-2.260;2023-04-06T15:38:09;13.20;99.90
59307;DHT22;47983;53.016;-2.260;2023-04-06T15:40:47;13.20;99.90
59307;DHT22;47983;53.016;-2.260;2023-04-06T15:43:15;13.30;99.90
59307;DHT22;47983;53.016;-2.260;2023-04-06T15:45:43;13.30;99.90
59307;DHT22;47983;53.016;-2.260;2023-04-06T15:48:11;13.30;99.90
59307;DHT22;47983;53.016;-2.260;2023-04-06T15:50:38;13.20;99.90
59307;DHT22;47983;53.016;-2.260;2023-04-06T15:53:09;13.10;99.90
59307;DHT22;47983;53.016;-2.260;2023-04-06T15:55:37;13.40;99.90
59307;DHT22;47983;53.016;-2.260;2023-04-06T15:58:04;12.90;99.90
59307;DHT22;47983;53.016;-2.260;2023-04-06T16:00:34;12.80;99.90
59307;DHT22;47983;53.016;-2.260;2023-04-06T16:03:04;12.90;99.90
59307;DHT22;47983;53.016;-2.260;2023-04-06T16:05:32;12.90;99.90
59307;DHT22;47983;53.016;-2.260;2023-04-06T16:08:22;12.90;99.90